Time;durP1;ratioP1;P1;durP2;ratioP2;P2;SDS_P1;SDS_P2;PMS_P1;PMS_P2;Temp;Humidity;BMP_temperature;BMP_pressure;BME280_temperature;BME280_humidity;BME280_pressure;Samples;Min_cycle;Max_cycle;Signal;HPM_P1;HPM_P2
2023/12/04 00:00:34;;;;;;;1.65;0.25;;;;;;;14.45;100.00;100836.97;5004629;28;20054;-73
2023/12/04 00:03:04;;;;;;;0.30;0.25;;;;;;;14.41;100.00;100840.34;5008192;28;20076;-74
2023/12/04 00:05:36;;;;;;;0.45;0.20;;;;;;;14.41;100.00;100849.91;5026338;28;20075;-74
2023/12/04 00:08:06;;;;;;;0.75;0.30;;;;;;;14.37;100.00;100848.97;5026064;28;20049;-74
2023/12/04 00:10:35;;;;;;;0.65;0.15;;;;;;;14.32;100.00;100847.16;5026380;28;20054;-72
2023/12/04 00:13:03;;;;;;;0.20;0.20;;;;;;;14.31;100.00;100843.66;5026246;28;20045;-72
2023/12/04 00:15:34;;;;;;;0.13;0.10;;;;;;;14.29;100.00;100842.75;5023520;28;20045;-74
2023/12/04 00:18:04;;;;;;;0.10;0.10;;;;;;;14.36;100.00;100859.34;5025435;28;20053;-73
2023/12/04 00:20:36;;;;;;;0.30;0.20;;;;;;;14.36;100.00;100855.03;5027371;28;20541;-74
2023/12/04 00:23:08;;;;;;;0.00;0.00;;;;;;;14.33;100.00;100865.38;5025293;28;20049;-74
2023/12/04 00:25:37;;;;;;;0.10;0.10;;;;;;;14.31;100.00;100869.69;5026234;28;20134;-73
2023/12/04 00:28:06;;;;;;;0.10;0.10;;;;;;;14.32;100.00;100875.78;5025338;28;20282;-73
2023/12/04 00:30:34;;;;;;;0.35;0.08;;;;;;;14.27;100.00;100867.91;5025943;28;20050;-74
2023/12/04 00:33:05;;;;;;;0.10;0.10;;;;;;;14.25;100.00;100875.69;5024800;28;20569;-74
2023/12/04 00:35:34;;;;;;;4.88;0.17;;;;;;;14.22;100.00;100888.66;5026858;28;20506;-74
2023/12/04 00:38:03;;;;;;;0.10;0.00;;;;;;;14.23;100.00;100882.59;5026150;28;20049;-74
2023/12/04 00:40:35;;;;;;;0.10;0.10;;;;;;;14.22;100.00;100891.25;5026818;28;20084;-72
2023/12/04 00:43:04;;;;;;;0.00;0.00;;;;;;;14.22;100.00;100890.34;5023010;28;20053;-73
2023/12/04 00:45:37;;;;;;;0.03;0.03;;;;;;;14.20;100.00;100897.25;5032479;28;20119;-75
2023/12/04 00:48:07;;;;;;;0.00;0.00;;;;;;;14.19;100.00;100898.13;5029368;28;20137;-74
2023/12/04 00:50:36;;;;;;;0.10;0.00;;;;;;;14.19;100.00;100903.31;5027998;28;20132;-74
2023/12/04 00:53:05;;;;;;;0.20;0.10;;;;;;;14.16;100.00;100890.28;5029524;28;20053;-73
2023/12/04 00:55:37;;;;;;;0.00;0.00;;;;;;;14.17;100.00;100907.63;5028643;28;20050;-72
2023/12/04 00:58:05;;;;;;;0.03;0.03;;;;;;;14.11;100.00;100902.31;5028231;28;20041;-74
2023/12/04 01:00:37;;;;;;;0.70;0.15;;;;;;;14.14;100.00;100918.00;5030254;28;20057;-74
2023/12/04 01:03:07;;;;;;;0.10;0.00;;;;;;;14.13;100.00;100921.44;5030478;28;20597;-75
2023/12/04 01:05:36;;;;;;;0.40;0.10;;;;;;;14.10;100.00;100913.56;5029406;28;20049;-72
2023/12/04 01:08:04;;;;;;;0.00;0.00;;;;;;;14.10;100.00;100937.00;5029440;28;20053;-73
2023/12/04 01:10:36;;;;;;;0.10;0.10;;;;;;;14.06;100.00;100920.44;5026672;28;20056;-72
2023/12/04 01:13:05;;;;;;;2.73;0.27;;;;;;;14.08;100.00;100923.94;5029283;28;20053;-72
2023/12/04 01:15:34;;;;;;;0.10;0.00;;;;;;;14.08;100.00;100936.97;5024023;28;20049;-73
2023/12/04 01:18:03;;;;;;;1.50;0.15;;;;;;;14.07;100.00;100944.75;5029996;28;20075;-74
2023/12/04 01:20:34;;;;;;;0.65;0.10;;;;;;;14.09;100.00;100953.44;5028552;28;20112;-74
2023/12/04 01:23:03;;;;;;;1.35;0.20;;;;;;;14.09;100.00;100953.44;5030527;28;20103;-73
2023/12/04 01:25:35;;;;;;;0.20;0.10;;;;;;;14.11;100.00;100964.75;5027820;28;20053;-73
2023/12/04 01:28:03;;;;;;;0.28;0.20;;;;;;;14.07;100.00;100962.97;5030268;28;20057;-72
2023/12/04 01:30:35;;;;;;;0.43;0.20;;;;;;;14.01;100.00;100966.31;5032738;28;20050;-73
2023/12/04 01:33:04;;;;;;;0.40;0.15;;;;;;;14.06;100.00;100971.59;5031680;28;20385;-74
2023/12/04 01:35:37;;;;;;;0.68;0.15;;;;;;;14.11;100.00;100980.38;5025413;28;20112;-73
2023/12/04 01:38:06;;;;;;;0.28;0.22;;;;;;;14.14;100.00;100985.66;5027428;28;20050;-73
2023/12/04 01:40:34;;;;;;;2.90;0.17;;;;;;;14.12;100.00;100988.22;5028776;28;20049;-75
2023/12/04 01:43:03;;;;;;;0.40;0.10;;;;;;;14.12;100.00;100988.22;5028163;28;20140;-73
2023/12/04 01:45:36;;;;;;;0.30;0.10;;;;;;;14.12;100.00;100992.53;5028764;28;20410;-76
2023/12/04 01:48:07;;;;;;;0.10;0.10;;;;;;;14.12;100.00;100988.22;5029895;28;20049;-76
2023/12/04 01:50:38;;;;;;;0.30;0.10;;;;;;;14.13;100.00;100989.09;5028674;28;20463;-74
2023/12/04 01:53:07;;;;;;;1.10;0.20;;;;;;;14.13;100.00;100996.88;5028389;28;20060;-75
2023/12/04 01:55:39;;;;;;;0.40;0.20;;;;;;;14.10;100.00;100999.44;5026070;28;20104;-74
2023/12/04 01:58:08;;;;;;;0.00;0.00;;;;;;;14.08;100.00;101004.59;5027294;28;20052;-74
2023/12/04 02:00:37;;;;;;;0.43;0.20;;;;;;;14.07;100.00;101008.06;5028383;28;20064;-75
2023/12/04 02:03:06;;;;;;;0.30;0.17;;;;;;;14.10;100.00;101017.66;5027985;28;20192;-75
2023/12/04 02:05:37;;;;;;;0.52;0.50;;;;;;;14.11;100.00;101016.78;5028286;28;20057;-74
2023/12/04 02:08:07;;;;;;;0.80;0.45;;;;;;;14.10;100.00;101015.06;5025034;28;20046;-74
2023/12/04 02:10:36;;;;;;;0.47;0.43;;;;;;;14.05;100.00;101022.78;5025292;28;20053;-74
2023/12/04 02:13:05;;;;;;;2.72;0.60;;;;;;;14.08;100.00;101034.97;5029312;28;20053;-74
2023/12/04 02:15:34;;;;;;;0.57;0.40;;;;;;;14.06;100.00;101037.53;5024839;28;20167;-75
2023/12/04 02:18:04;;;;;;;0.68;0.50;;;;;;;14.06;100.00;101040.13;5026602;28;20601;-74
2023/12/04 02:20:37;;;;;;;3.38;0.60;;;;;;;14.04;100.00;101042.72;5027304;28;20080;-73
2023/12/04 02:23:06;;;;;;;0.30;0.30;;;;;;;13.98;100.00;101037.38;5027364;28;20063;-73
2023/12/04 02:25:36;;;;;;;0.20;0.20;;;;;;;13.98;100.00;101042.59;5027190;28;20059;-75
2023/12/04 02:28:09;;;;;;;0.38;0.38;;;;;;;13.98;100.00;101039.97;5027242;28;20080;-74
2023/12/04 02:30:40;;;;;;;0.10;0.10;;;;;;;13.96;100.00;101036.47;5026033;28;20145;-72
2023/12/04 02:33:09;;;;;;;0.40;0.32;;;;;;;13.95;100.00;101039.94;5026564;28;20046;-72
2023/12/04 02:35:41;;;;;;;0.55;0.17;;;;;;;13.95;100.00;101042.53;5029520;28;20041;-71
2023/12/04 02:38:10;;;;;;;0.60;0.30;;;;;;;13.94;100.00;101038.16;5028963;28;20091;-75
2023/12/04 02:40:40;;;;;;;1.30;0.30;;;;;;;13.94;100.00;101030.34;5026011;28;20057;-74
2023/12/04 02:43:09;;;;;;;0.32;0.20;;;;;;;13.91;100.00;101037.25;5023394;28;20046;-75
2023/12/04 02:45:38;;;;;;;0.52;0.40;;;;;;;13.91;100.00;101030.31;5023536;28;21223;-73
2023/12/04 02:48:07;;;;;;;0.60;0.30;;;;;;;13.89;100.00;101024.19;5023646;28;20056;-73
2023/12/04 02:50:38;;;;;;;0.45;0.20;;;;;;;13.92;100.00;101041.56;5022968;28;20065;-75
2023/12/04 02:53:07;;;;;;;0.52;0.40;;;;;;;13.92;100.00;101024.25;5029261;28;20076;-74
2023/12/04 02:55:48;;;;;;;1.15;0.65;;;;;;;13.91;100.00;101025.09;5026863;28;20060;-74
2023/12/04 02:58:18;;;;;;;0.82;0.50;;;;;;;13.92;100.00;101031.19;5028206;28;20128;-73
2023/12/04 03:00:47;;;;;;;0.50;0.40;;;;;;;13.91;100.00;101035.50;5022595;28;20168;-73
2023/12/04 03:03:32;;;;;;;0.55;0.50;;;;;;;13.92;100.00;101034.66;5027227;28;20060;-73
2023/12/04 03:06:01;;;;;;;1.60;0.30;;;;;;;13.92;100.00;101042.44;5023715;28;20053;-73
2023/12/04 03:08:30;;;;;;;0.80;0.50;;;;;;;13.98;100.00;101045.19;5025852;28;20055;-73
2023/12/04 03:11:02;;;;;;;0.32;0.30;;;;;;;14.01;100.00;101053.03;5025711;28;20071;-71
2023/12/04 03:13:34;;;;;;;0.80;0.55;;;;;;;14.08;100.00;101066.19;5024639;28;20045;-73
2023/12/04 03:16:03;;;;;;;1.35;0.80;;;;;;;14.08;100.00;101067.06;5026282;28;20046;-73
2023/12/04 03:18:40;;;;;;;0.80;0.50;;;;;;;14.13;100.00;101074.94;5028038;28;20053;-72
2023/12/04 03:21:12;;;;;;;0.30;0.30;;;;;;;14.14;100.00;101067.19;5021977;28;20053;-72
2023/12/04 03:23:42;;;;;;;1.60;0.47;;;;;;;14.13;100.00;101068.06;5024993;28;20057;-73
2023/12/04 03:26:17;;;;;;;1.52;0.95;;;;;;;14.12;100.00;101075.81;5021367;28;20056;-73
2023/12/04 03:28:46;;;;;;;1.05;0.63;;;;;;;14.10;100.00;101082.72;5024348;28;20142;-73
2023/12/04 03:31:15;;;;;;;1.33;0.63;;;;;;;14.07;100.00;101082.66;5028913;28;20060;-74
2023/12/04 03:33:44;;;;;;;1.15;0.50;;;;;;;14.03;100.00;101082.56;5026201;28;20045;-73
2023/12/04 03:36:13;;;;;;;0.40;0.30;;;;;;;14.04;100.00;101094.75;5026818;28;20187;-72
2023/12/04 03:38:42;;;;;;;0.30;0.30;;;;;;;14.04;100.00;101091.25;5025506;28;20084;-73
2023/12/04 03:41:18;;;;;;;1.48;0.80;;;;;;;14.01;100.00;101092.06;5027081;28;20160;-72
2023/12/04 03:43:49;;;;;;;2.40;0.90;;;;;;;14.00;100.00;101098.13;5026346;28;20133;-73
2023/12/04 03:46:20;;;;;;;2.17;1.23;;;;;;;14.01;100.00;101101.59;5023928;28;20048;-71
2023/12/04 03:48:49;;;;;;;2.35;1.27;;;;;;;14.03;100.00;101106.00;5025414;28;20077;-72
2023/12/04 03:51:18;;;;;;;1.35;0.80;;;;;;;14.06;100.00;101096.50;5026645;28;20048;-72
2023/12/04 03:53:47;;;;;;;1.33;0.80;;;;;;;14.08;100.00;101084.41;5026885;28;20060;-72
2023/12/04 03:56:17;;;;;;;1.10;0.80;;;;;;;14.07;100.00;101093.06;5020115;28;20056;-72
2023/12/04 03:58:46;;;;;;;1.17;0.70;;;;;;;14.07;100.00;101082.66;5021367;28;20041;-72
2023/12/04 04:01:14;;;;;;;1.33;0.88;;;;;;;14.07;100.00;101082.66;5023829;28;20123;-70
2023/12/04 04:03:56;;;;;;;5.70;1.20;;;;;;;14.07;100.00;101083.53;5024604;28;20129;-70
2023/12/04 04:06:25;;;;;;;0.52;0.50;;;;;;;14.05;100.00;101074.81;5024521;28;20063;-71
2023/12/04 04:08:53;;;;;;;1.02;0.60;;;;;;;14.02;100.00;101070.44;5021852;28;20471;-72
2023/12/04 04:11:25;;;;;;;1.35;0.60;;;;;;;14.03;100.00;101072.16;5026268;28;20049;-72
2023/12/04 04:13:54;;;;;;;0.80;0.60;;;;;;;14.05;100.00;101074.81;5021595;28;20081;-72
2023/12/04 04:16:22;;;;;;;0.65;0.50;;;;;;;14.08;100.00;101074.00;5026627;28;20060;-73
2023/12/04 04:18:51;;;;;;;1.67;0.60;;;;;;;14.12;100.00;101083.63;5028966;28;20080;-71
2023/12/04 04:21:20;;;;;;;1.67;0.73;;;;;;;14.14;100.00;101074.13;5025680;28;20042;-71
2023/12/04 04:23:48;;;;;;;1.30;0.93;;;;;;;14.17;100.00;101089.78;5028553;28;20521;-71
2023/12/04 04:26:17;;;;;;;1.17;0.77;;;;;;;14.19;100.00;101095.91;5031229;28;20050;-71
2023/12/04 04:28:50;;;;;;;2.60;0.70;;;;;;;14.10;100.00;101082.72;5033755;28;20056;-71
2023/12/04 04:31:19;;;;;;;3.85;0.68;;;;;;;14.16;100.00;101086.31;5031415;28;20056;-70
2023/12/04 04:33:48;;;;;;;0.93;0.60;;;;;;;14.15;100.00;101088.88;5031895;28;21214;-71
2023/12/04 04:36:17;;;;;;;2.25;1.00;;;;;;;14.12;100.00;101086.22;5031974;28;20095;-71
2023/12/04 04:38:45;;;;;;;0.93;0.80;;;;;;;14.12;100.00;101086.22;5029803;28;20059;-70
2023/12/04 04:41:16;;;;;;;1.48;1.00;;;;;;;14.10;100.00;101087.91;5029900;28;20081;-72
2023/12/04 04:43:46;;;;;;;1.10;0.80;;;;;;;14.09;100.00;101080.94;5028656;28;20119;-72
2023/12/04 04:46:15;;;;;;;0.88;0.70;;;;;;;14.09;100.00;101070.53;5030652;28;20577;-71
2023/12/04 04:48:44;;;;;;;3.75;1.13;;;;;;;14.08;100.00;101072.25;5028431;28;20067;-71
2023/12/04 04:51:12;;;;;;;1.85;1.10;;;;;;;14.06;100.00;101075.69;5025597;28;20149;-71
2023/12/04 04:53:41;;;;;;;2.17;1.23;;;;;;;14.01;100.00;101088.59;5028462;28;20053;-72
2023/12/04 04:56:12;;;;;;;3.00;0.95;;;;;;;14.01;100.00;101088.59;5027949;28;20134;-72
2023/12/04 04:58:41;;;;;;;1.35;0.88;;;;;;;14.01;100.00;101089.47;5025644;28;20041;-71
2023/12/04 05:01:12;;;;;;;1.75;1.33;;;;;;;14.01;100.00;101091.19;5029273;28;20049;-72
2023/12/04 05:03:41;;;;;;;1.20;1.10;;;;;;;13.99;100.00;101088.56;5028061;28;20049;-71
2023/12/04 05:06:10;;;;;;;1.40;1.10;;;;;;;14.00;100.00;101095.53;5027769;28;20053;-70
2023/12/04 05:08:39;;;;;;;2.10;1.48;;;;;;;14.02;100.00;101091.25;5027525;28;20048;-71
2023/12/04 05:11:08;;;;;;;2.15;1.48;;;;;;;14.00;100.00;101098.13;5025833;28;20049;-71
2023/12/04 05:13:36;;;;;;;2.40;1.52;;;;;;;14.01;100.00;101125.03;5029925;28;20060;-72
2023/12/04 05:16:06;;;;;;;2.25;1.33;;;;;;;13.99;100.00;101137.97;5027855;28;20051;-72
2023/12/04 05:18:37;;;;;;;2.80;1.70;;;;;;;13.98;100.00;101141.44;5026900;28;20046;-71
2023/12/04 05:21:09;;;;;;;3.28;1.80;;;;;;;13.98;100.00;101143.19;5030236;28;20126;-71
2023/12/04 05:23:38;;;;;;;1.27;1.00;;;;;;;13.99;100.00;101153.59;5029206;28;20100;-72
2023/12/04 05:26:11;;;;;;;1.38;1.02;;;;;;;14.00;100.00;101159.69;5025789;28;20053;-69
2023/12/04 05:28:40;;;;;;;1.83;1.20;;;;;;;14.00;100.00;101168.38;5028499;28;20052;-71
2023/12/04 05:31:09;;;;;;;2.70;1.77;;;;;;;13.97;100.00;101168.31;5028513;28;20132;-71
2023/12/04 05:33:39;;;;;;;2.13;1.45;;;;;;;14.00;100.00;101170.97;5028347;28;20048;-71
2023/12/04 05:36:08;;;;;;;1.75;1.38;;;;;;;14.01;100.00;101177.06;5027137;28;20056;-72
2023/12/04 05:38:37;;;;;;;1.35;1.23;;;;;;;14.00;100.00;101175.31;5025915;28;20046;-74
2023/12/04 05:41:06;;;;;;;1.08;0.82;;;;;;;14.02;100.00;101179.69;5021535;28;20632;-73
2023/12/04 05:43:34;;;;;;;1.10;0.80;;;;;;;14.02;100.00;101171.91;5026077;28;20503;-72
2023/12/04 05:46:03;;;;;;;2.67;0.77;;;;;;;14.02;100.00;101184.03;5024056;28;20104;-72
2023/12/04 05:48:35;;;;;;;3.80;0.70;;;;;;;13.95;100.00;101170.00;5024621;28;20057;-71
2023/12/04 05:51:06;;;;;;;1.70;0.50;;;;;;;13.99;100.00;101163.13;5024239;28;20518;-72
2023/12/04 05:53:35;;;;;;;1.13;0.60;;;;;;;13.95;100.00;101172.63;5027045;28;20121;-72
2023/12/04 05:56:06;;;;;;;1.08;0.50;;;;;;;13.91;100.00;101170.78;5026934;28;20049;-72
2023/12/04 05:58:38;;;;;;;0.63;0.43;;;;;;;13.89;100.00;101167.25;5027550;28;20050;-72
2023/12/04 06:01:07;;;;;;;0.35;0.30;;;;;;;13.90;100.00;101168.13;5027500;28;20053;-73
2023/12/04 06:03:36;;;;;;;1.00;0.50;;;;;;;13.85;100.00;101155.03;5026503;28;20073;-71
2023/12/04 06:06:07;;;;;;;0.30;0.30;;;;;;;13.88;100.00;101165.50;5026653;28;20062;-72
2023/12/04 06:08:36;;;;;;;2.60;0.47;;;;;;;13.84;100.00;101174.09;5026065;28;20140;-72
2023/12/04 06:11:05;;;;;;;0.40;0.20;;;;;;;13.83;100.00;101167.09;5024733;28;20511;-74
2023/12/04 06:13:34;;;;;;;0.35;0.28;;;;;;;13.83;100.00;101172.31;5025073;28;20042;-72
2023/12/04 06:16:03;;;;;;;0.30;0.30;;;;;;;13.82;100.00;101171.44;5027392;28;20049;-73
2023/12/04 06:18:32;;;;;;;0.63;0.40;;;;;;;13.81;100.00;101168.78;5027493;28;20521;-75
2023/12/04 06:21:00;;;;;;;0.93;0.30;;;;;;;13.76;100.00;101162.63;5027589;28;20092;-74
2023/12/04 06:23:31;;;;;;;0.30;0.30;;;;;;;13.73;100.00;101149.56;5026265;28;20519;-72
2023/12/04 06:26:01;;;;;;;0.55;0.30;;;;;;;13.65;100.00;101148.50;5023781;28;20053;-74
2023/12/04 06:28:33;;;;;;;1.75;0.30;;;;;;;13.62;100.00;101141.50;5021529;28;20052;-72
2023/12/04 06:31:02;;;;;;;0.47;0.43;;;;;;;13.60;100.00;101138.84;5025115;28;20525;-71
2023/12/04 06:33:32;;;;;;;0.90;0.40;;;;;;;13.54;100.00;101137.84;5021330;28;20484;-72
2023/12/04 06:36:01;;;;;;;1.60;0.30;;;;;;;13.49;100.00;101121.25;5024090;28;20049;-72
2023/12/04 06:38:35;;;;;;;1.20;0.35;;;;;;;13.42;100.00;101115.03;5023824;28;20402;-71
2023/12/04 06:41:05;;;;;;;1.75;0.30;;;;;;;13.40;100.00;101115.00;5023000;28;20057;-74
2023/12/04 06:43:35;;;;;;;0.80;0.50;;;;;;;13.34;100.00;101103.59;5019784;28;20049;-73
2023/12/04 06:46:04;;;;;;;2.10;0.30;;;;;;;13.39;100.00;101112.38;5025415;28;20152;-73
2023/12/04 06:48:36;;;;;;;1.85;0.30;;;;;;;13.35;100.00;101113.13;5024432;28;20071;-72
2023/12/04 06:51:06;;;;;;;0.85;0.38;;;;;;;13.35;100.00;101131.31;5019892;28;20046;-72
2023/12/04 06:53:36;;;;;;;0.30;0.30;;;;;;;13.34;100.00;101119.19;5023750;28;20041;-72
2023/12/04 06:56:06;;;;;;;0.30;0.30;;;;;;;13.35;100.00;101123.53;5024453;28;20041;-72
2023/12/04 06:58:36;;;;;;;0.30;0.20;;;;;;;13.32;100.00;101120.84;5023378;28;20045;-73
2023/12/04 07:01:05;;;;;;;0.93;0.20;;;;;;;13.34;100.00;101121.78;5023880;28;20495;-72
2023/12/04 07:03:34;;;;;;;1.23;0.30;;;;;;;13.32;100.00;101120.84;5022419;28;20451;-73
2023/12/04 07:06:04;;;;;;;0.80;0.40;;;;;;;13.36;100.00;101122.69;5024420;28;20107;-72
2023/12/04 07:08:36;;;;;;;0.32;0.20;;;;;;;13.35;100.00;101110.53;5023198;28;20045;-72
2023/12/04 07:11:07;;;;;;;0.50;0.40;;;;;;;13.31;100.00;101104.41;5024424;28;20045;-73
2023/12/04 07:13:36;;;;;;;0.23;0.10;;;;;;;13.32;100.00;101115.66;5027207;28;20491;-72
2023/12/04 07:16:06;;;;;;;0.38;0.22;;;;;;;13.27;100.00;101110.31;5025431;28;20045;-72
2023/12/04 07:18:35;;;;;;;0.95;0.55;;;;;;;13.33;100.00;101112.22;5023620;28;20042;-72
2023/12/04 07:21:04;;;;;;;1.00;0.50;;;;;;;13.32;100.00;101123.47;5023707;28;20057;-72
2023/12/04 07:23:37;;;;;;;2.50;1.13;;;;;;;13.32;100.00;101120.84;5019416;28;20056;-71
2023/12/04 07:26:08;;;;;;;3.15;1.80;;;;;;;13.31;100.00;101121.69;5024562;28;20065;-72
2023/12/04 07:28:36;;;;;;;3.00;1.58;;;;;;;13.34;100.00;101124.38;5021736;28;20045;-71
2023/12/04 07:31:06;;;;;;;3.60;2.50;;;;;;;13.33;100.00;101125.19;5023894;28;20045;-71
2023/12/04 07:33:35;;;;;;;2.97;2.03;;;;;;;13.33;100.00;101123.50;5020468;28;20046;-71
2023/12/04 07:36:05;;;;;;;3.97;2.25;;;;;;;13.35;100.00;101126.13;5023846;28;20060;-70
2023/12/04 07:38:34;;;;;;;3.72;2.47;;;;;;;13.36;100.00;101127.91;5023161;28;20050;-70
2023/12/04 07:41:02;;;;;;;3.30;2.35;;;;;;;13.39;100.00;101120.16;5024647;28;20599;-71
2023/12/04 07:43:33;;;;;;;2.95;1.85;;;;;;;13.40;100.00;101114.13;5023876;28;20668;-71
2023/12/04 07:46:03;;;;;;;3.38;1.95;;;;;;;13.36;100.00;101105.38;5025480;28;20045;-72
2023/12/04 07:48:35;;;;;;;2.17;1.30;;;;;;;13.36;100.00;101101.91;5023491;28;20136;-74
2023/12/04 07:51:05;;;;;;;;;;;;;;;13.34;100.00;101093.19;5021138;28;20051;-72
2023/12/04 07:53:34;;;;;;;2.58;1.00;;;;;;;13.35;100.00;101102.72;5025655;28;20436;-72
2023/12/04 07:56:04;;;;;;;0.88;0.60;;;;;;;13.32;100.00;101113.06;5029932;28;20060;-73
2023/12/04 07:58:35;;;;;;;0.70;0.55;;;;;;;13.32;100.00;101106.13;5030994;28;20037;-71
2023/12/04 08:01:08;;;;;;;0.32;0.30;;;;;;;13.35;100.00;101107.94;5028637;28;20103;-73
2023/12/04 08:03:44;;;;;;;1.33;0.57;;;;;;;13.34;100.00;101113.97;5029919;28;20037;-72
2023/12/04 08:06:12;;;;;;;0.85;0.60;;;;;;;13.32;100.00;101115.66;5019215;28;20069;-71
2023/12/04 08:08:41;;;;;;;1.10;0.57;;;;;;;13.32;100.00;101113.94;5013874;28;20046;-71
2023/12/04 08:11:13;;;;;;;1.63;0.80;;;;;;;13.35;100.00;101113.13;5013486;28;20049;-71
2023/12/04 08:13:43;;;;;;;1.13;0.53;;;;;;;13.31;100.00;101113.88;5010773;28;20128;-71
2023/12/04 08:16:16;;;;;;;0.80;0.40;;;;;;;13.32;100.00;101119.13;5013532;28;20057;-70
2023/12/04 08:18:45;;;;;;;0.68;0.40;;;;;;;13.35;100.00;101113.13;5011041;28;20053;-71
2023/12/04 08:21:14;;;;;;;0.95;0.35;;;;;;;13.37;100.00;101111.44;5020039;28;20297;-71
2023/12/04 08:23:43;;;;;;;0.82;0.20;;;;;;;13.37;100.00;101103.66;5012196;28;20053;-72
2023/12/04 08:26:12;;;;;;;0.30;0.30;;;;;;;13.38;100.00;101108.03;5016371;28;20054;-72
2023/12/04 08:28:45;;;;;;;0.40;0.35;;;;;;;13.36;100.00;101101.91;5010238;28;20516;-72
2023/12/04 08:31:15;;;;;;;1.63;0.22;;;;;;;13.28;100.00;101099.09;5013947;28;20061;-71
2023/12/04 08:33:46;;;;;;;1.33;0.30;;;;;;;13.38;100.00;101102.81;5010638;28;20065;-72
2023/12/04 08:36:15;;;;;;;0.40;0.20;;;;;;;13.36;100.00;101104.50;5013167;28;20045;-73
2023/12/04 08:38:44;;;;;;;0.50;0.30;;;;;;;13.28;100.00;101093.03;5016544;28;20063;-72
2023/12/04 08:41:12;;;;;;;0.30;0.10;;;;;;;13.31;100.00;101096.59;5009693;28;20065;-71
2023/12/04 08:43:46;;;;;;;0.20;0.10;;;;;;;13.30;100.00;101096.56;5011705;28;20053;-72
2023/12/04 08:46:16;;;;;;;0.35;0.30;;;;;;;13.34;100.00;101104.47;5016151;28;20053;-70
2023/12/04 08:48:45;;;;;;;0.30;0.20;;;;;;;13.40;100.00;101114.13;5012540;28;20490;-71
2023/12/04 08:51:20;;;;;;;0.30;0.22;;;;;;;13.40;100.00;101103.75;5009802;28;20082;-71
2023/12/04 08:53:48;;;;;;;0.35;0.20;;;;;;;13.38;100.00;101097.63;5012182;28;20129;-71
2023/12/04 08:56:18;;;;;;;0.20;0.10;;;;;;;13.36;100.00;101088.91;5012218;28;20053;-70
2023/12/04 08:58:50;;;;;;;0.35;0.15;;;;;;;13.41;100.00;101089.88;5012909;28;20052;-71
2023/12/04 09:01:19;;;;;;;0.10;0.10;;;;;;;13.43;100.00;101097.72;5009039;28;20145;-71
2023/12/04 09:03:47;;;;;;;0.10;0.10;;;;;;;13.40;100.00;101082.94;5012992;28;20042;-71
2023/12/04 09:06:23;;;;;;;0.20;0.10;;;;;;;13.47;100.00;101087.44;5028763;28;20577;-72
2023/12/04 09:08:52;;;;;;;1.35;0.30;;;;;;;13.47;100.00;101083.94;5029151;28;20049;-71
2023/12/04 09:11:21;;;;;;;0.10;0.10;;;;;;;13.49;100.00;101077.97;5029027;28;20132;-72
2023/12/04 09:13:51;;;;;;;1.08;0.17;;;;;;;13.49;100.00;101079.66;5027932;28;20112;-71
2023/12/04 09:16:19;;;;;;;0.28;0.10;;;;;;;13.49;100.00;101085.75;5028836;28;20507;-72
2023/12/04 09:18:48;;;;;;;0.10;0.08;;;;;;;13.54;100.00;101086.72;5027275;28;20079;-71
2023/12/04 09:21:18;;;;;;;0.20;0.15;;;;;;;13.57;100.00;101080.72;5027677;28;20144;-72
2023/12/04 09:23:49;;;;;;;0.00;0.00;;;;;;;13.56;100.00;101079.84;5021655;28;20045;-72
2023/12/04 09:26:18;;;;;;;2.37;0.20;;;;;;;13.61;100.00;101077.34;5027948;28;20064;-71
2023/12/04 09:28:47;;;;;;;0.10;0.10;;;;;;;13.63;100.00;101086.06;5026963;28;20125;-73
2023/12/04 09:31:18;;;;;;;0.63;0.15;;;;;;;13.59;100.00;101084.25;5026177;28;20061;-71
2023/12/04 09:33:47;;;;;;;0.35;0.08;;;;;;;13.60;100.00;101075.56;5025656;28;20068;-71
2023/12/04 09:36:15;;;;;;;0.30;0.20;;;;;;;13.58;100.00;101078.16;5028109;28;20041;-71
2023/12/04 09:38:45;;;;;;;1.05;0.10;;;;;;;13.57;100.00;101086.78;5025858;28;20050;-71
2023/12/04 09:41:15;;;;;;;0.30;0.20;;;;;;;13.61;100.00;101098.16;5025785;28;20067;-72
2023/12/04 09:43:44;;;;;;;0.35;0.13;;;;;;;13.62;100.00;101105.09;5026372;28;20045;-72
2023/12/04 09:46:17;;;;;;;0.25;0.10;;;;;;;13.61;100.00;101109.41;5027277;28;20057;-72
2023/12/04 09:48:46;;;;;;;;;;;;;;;13.63;100.00;101114.66;5023935;28;20107;-72
2023/12/04 09:51:16;;;;;;;0.95;0.20;;;;;;;13.64;100.00;101107.75;5026320;28;20382;-72
2023/12/04 09:53:45;;;;;;;1.23;0.20;;;;;;;13.64;100.00;101112.94;5022102;28;20056;-72
2023/12/04 09:56:14;;;;;;;0.50;0.30;;;;;;;13.55;100.00;101119.66;5027773;28;20042;-73
2023/12/04 09:58:44;;;;;;;0.10;0.10;;;;;;;13.56;100.00;101111.06;5027842;28;20475;-73
2023/12/04 10:01:14;;;;;;;0.25;0.25;;;;;;;13.54;100.00;101107.53;5032805;28;20049;-71
2023/12/04 10:03:44;;;;;;;0.00;0.00;;;;;;;13.50;100.00;101105.69;5030513;28;20113;-73
2023/12/04 10:06:18;;;;;;;0.17;0.10;;;;;;;13.51;100.00;101107.44;5023969;28;20089;-71
2023/12/04 10:08:47;;;;;;;0.13;0.10;;;;;;;13.53;100.00;101115.28;5028585;28;20048;-71
2023/12/04 10:11:15;;;;;;;1.05;0.20;;;;;;;13.55;100.00;101111.88;5024936;28;20054;-71
2023/12/04 10:13:44;;;;;;;0.10;0.10;;;;;;;13.57;100.00;101110.19;5022388;28;20084;-71
2023/12/04 10:16:13;;;;;;;0.30;0.15;;;;;;;13.56;100.00;101118.84;5023957;28;20046;-73
2023/12/04 10:18:44;;;;;;;2.78;0.30;;;;;;;13.58;100.00;101129.25;5026033;28;20053;-72
2023/12/04 10:21:14;;;;;;;0.73;0.20;;;;;;;13.61;100.00;101130.22;5026149;28;20507;-72
2023/12/04 10:23:44;;;;;;;0.20;0.08;;;;;;;13.62;100.00;101120.69;5026148;28;20053;-72
2023/12/04 10:26:20;;;;;;;0.20;0.17;;;;;;;13.62;100.00;101124.16;5027418;28;20058;-71
2023/12/04 10:29:01;;;;;;;0.28;0.20;;;;;;;13.67;100.00;101124.28;5026610;28;20053;-72
2023/12/04 10:31:35;;;;;;;0.52;0.10;;;;;;;13.70;100.00;101111.34;5026429;28;20079;-72
2023/12/04 10:34:04;;;;;;;0.30;0.10;;;;;;;13.69;100.00;101112.19;5025663;28;20057;-71
2023/12/04 10:36:38;;;;;;;0.10;0.10;;;;;;;13.70;100.00;101113.97;5023727;28;20199;-71
2023/12/04 10:39:06;;;;;;;0.00;0.00;;;;;;;13.73;100.00;101115.75;5021883;28;20053;-71
2023/12/04 10:41:35;;;;;;;0.20;0.20;;;;;;;13.75;100.00;101119.25;5024668;28;20442;-71
2023/12/04 10:44:04;;;;;;;0.98;0.13;;;;;;;13.76;100.00;101121.00;5025502;28;20075;-71
2023/12/04 10:46:38;;;;;;;0.20;0.10;;;;;;;13.77;100.00;101104.56;5027183;28;20060;-71
2023/12/04 10:49:07;;;;;;;1.85;0.03;;;;;;;13.80;100.00;101107.22;5021419;28;20045;-71
2023/12/04 10:51:37;;;;;;;2.72;0.17;;;;;;;13.82;100.00;101109.03;5025382;28;20075;-71
2023/12/04 10:54:10;;;;;;;0.40;0.10;;;;;;;13.85;100.00;101109.94;5023743;28;20064;-72
2023/12/04 10:56:44;;;;;;;0.00;0.00;;;;;;;13.89;100.00;101109.16;5031304;28;20487;-71
2023/12/04 10:59:17;;;;;;;0.20;0.10;;;;;;;13.90;100.00;101114.38;5029276;28;20551;-71
2023/12/04 11:01:47;;;;;;;0.10;0.03;;;;;;;13.87;100.00;101106.50;5025453;28;20060;-71
2023/12/04 11:04:21;;;;;;;2.50;0.43;;;;;;;13.88;100.00;101107.38;5029268;28;20060;-71
2023/12/04 11:06:57;;;;;;;4.55;0.10;;;;;;;13.88;100.00;101103.09;5029846;28;20057;-70
2023/12/04 11:09:27;;;;;;;0.10;0.10;;;;;;;13.91;100.00;101108.34;5025881;28;20488;-71
2023/12/04 11:12:01;;;;;;;0.50;0.10;;;;;;;13.93;100.00;101105.78;5024811;28;20511;-71
2023/12/04 11:14:39;;;;;;;0.20;0.10;;;;;;;13.93;100.00;101100.59;5025583;28;20060;-71
2023/12/04 11:17:12;;;;;;;0.00;0.00;;;;;;;13.92;100.00;101091.88;5024014;28;20053;-72
2023/12/04 11:19:50;;;;;;;0.10;0.10;;;;;;;13.93;100.00;101080.66;5027956;28;20076;-71
2023/12/04 11:22:26;;;;;;;0.10;0.10;;;;;;;13.94;100.00;101084.13;5022930;28;20049;-70
2023/12/04 11:24:56;;;;;;;0.20;0.10;;;;;;;13.97;100.00;101087.66;5017866;28;20041;-72
2023/12/04 11:27:25;;;;;;;0.03;0.03;;;;;;;13.99;100.00;101080.75;5024316;28;20128;-71
2023/12/04 11:29:54;;;;;;;0.60;0.20;;;;;;;13.98;100.00;101079.00;5026355;28;20049;-72